Time;durP1;ratioP1;P1;durP2;ratioP2;P2;SDS_P1;SDS_P2;PMS_P1;PMS_P2;Temp;Humidity;BMP_temperature;BMP_pressure;BME280_temperature;BME280_humidity;BME280_pressure;Samples;Min_cycle;Max_cycle;Signal;HPM_P1;HPM_P2
2021/07/26 00:02:00;;;;;;;14.15;11.00;;;24.60;82.90;;;;;;5114996;28;20020;-46
2021/07/26 00:04:25;;;;;;;14.50;11.80;;;24.40;83.50;;;;;;5114741;28;20502;-44
2021/07/26 00:06:51;;;;;;;12.40;11.02;;;24.30;84.20;;;;;;5113019;28;20047;-46
2021/07/26 00:09:17;;;;;;;13.85;10.82;;;24.30;84.40;;;;;;5112926;28;20051;-46
2021/07/26 00:11:43;;;;;;;13.48;11.05;;;24.40;84.40;;;;;;5115011;28;20477;-46
2021/07/26 00:14:08;;;;;;;11.75;10.55;;;24.30;84.30;;;;;;5112729;28;20059;-47
2021/07/26 00:16:34;;;;;;;12.02;10.80;;;24.20;84.50;;;;;;5114647;28;20020;-47
2021/07/26 00:19:00;;;;;;;12.75;10.23;;;24.10;84.40;;;;;;5078487;28;20043;-45
2021/07/26 00:21:26;;;;;;;12.68;11.23;;;24.20;84.40;;;;;;5112515;28;20035;-45
2021/07/26 00:23:52;;;;;;;12.57;10.82;;;24.40;84.20;;;;;;5114294;28;20034;-47
2021/07/26 00:26:17;;;;;;;13.35;10.50;;;24.50;83.40;;;;;;5114398;28;20028;-46
2021/07/26 00:28:43;;;;;;;13.30;11.55;;;24.70;83.00;;;;;;5112625;28;20042;-46
2021/07/26 00:31:09;;;;;;;11.70;10.50;;;24.80;82.50;;;;;;5112661;28;20084;-47
2021/07/26 00:34:18;;;;;;;11.60;10.35;;;25.00;82.60;;;;;;5112517;28;20174;-47
2021/07/26 00:36:45;;;;;;;11.85;10.50;;;24.90;81.80;;;;;;5114104;28;20035;-47
2021/07/26 00:39:14;;;;;;;14.50;10.82;;;25.10;81.50;;;;;;5114091;28;20387;-47
2021/07/26 00:41:40;;;;;;;12.25;10.95;;;25.10;81.30;;;;;;5112368;28;20035;-45
2021/07/26 00:44:07;;;;;;;12.02;10.68;;;25.20;81.30;;;;;;5114018;28;20107;-48
2021/07/26 00:46:33;;;;;;;12.63;11.25;;;25.20;81.10;;;;;;5114120;28;20542;-48
2021/07/26 00:49:01;;;;;;;12.23;10.60;;;25.20;81.10;;;;;;5114672;28;20065;-47
2021/07/26 00:51:27;;;;;;;11.98;10.77;;;25.20;81.50;;;;;;5114060;28;20023;-45
2021/07/26 00:53:54;;;;;;;12.15;10.88;;;25.20;81.50;;;;;;5113843;28;20105;-48
2021/07/26 00:56:20;;;;;;;13.25;11.88;;;25.10;81.70;;;;;;5113966;27;20505;-47
2021/07/26 00:58:47;;;;;;;12.95;11.63;;;25.10;81.10;;;;;;5113683;28;20444;-45
2021/07/26 01:01:17;;;;;;;13.85;11.63;;;25.00;81.50;;;;;;5113786;27;20047;-48
2021/07/26 01:03:44;;;;;;;13.68;11.43;;;25.10;81.20;;;;;;5112040;28;20048;-48
2021/07/26 01:06:13;;;;;;;14.23;10.95;;;25.10;81.10;;;;;;5112164;28;20047;-47
2021/07/26 01:08:39;;;;;;;12.52;10.30;;;25.10;80.80;;;;;;5112044;28;20043;-45
2021/07/26 01:11:05;;;;;;;12.88;10.85;;;25.00;80.80;;;;;;5113770;28;20047;-47
2021/07/26 01:13:31;;;;;;;12.85;10.57;;;24.90;80.80;;;;;;5146663;27;20035;-48
2021/07/26 01:15:57;;;;;;;13.40;10.43;;;24.80;80.70;;;;;;5111840;28;20398;-47
2021/07/26 01:18:26;;;;;;;14.93;10.43;;;24.60;81.10;;;;;;5113935;28;20032;-46
2021/07/26 01:20:55;;;;;;;15.57;10.43;;;24.30;82.10;;;;;;5113699;28;20035;-45
2021/07/26 01:23:22;;;;;;;11.57;10.25;;;24.10;83.00;;;;;;5113863;28;20478;-46
2021/07/26 01:25:48;;;;;;;12.15;10.85;;;24.00;82.60;;;;;;5113749;28;20024;-47
2021/07/26 01:28:15;;;;;;;15.63;10.93;;;24.00;82.60;;;;;;5111506;28;20156;-45
2021/07/26 01:30:42;;;;;;;14.15;11.15;;;24.00;82.60;;;;;;5111307;28;20028;-45
2021/07/26 01:33:09;;;;;;;12.05;9.98;;;24.00;82.80;;;;;;5111479;28;20063;-47
2021/07/26 01:35:36;;;;;;;11.63;9.95;;;24.00;82.50;;;;;;5094608;28;20065;-46
2021/07/26 01:38:02;;;;;;;11.43;9.98;;;23.90;82.80;;;;;;5111602;28;20122;-47
2021/07/26 01:40:28;;;;;;;13.27;10.60;;;24.10;82.60;;;;;;5111338;28;20169;-47
2021/07/26 01:43:01;;;;;;;13.98;10.40;;;24.20;82.70;;;;;;5111486;28;20035;-46
2021/07/26 01:45:27;;;;;;;11.13;9.75;;;24.20;82.30;;;;;;5111536;28;20110;-47
2021/07/26 01:48:04;;;;;;;14.57;10.50;;;23.90;82.40;;;;;;5111274;28;20036;-48
2021/07/26 01:50:38;;;;;;;10.32;9.25;;;23.80;83.20;;;;;;5111273;28;20130;-45
2021/07/26 01:53:03;;;;;;;13.85;9.45;;;23.70;83.50;;;;;;5111350;28;20089;-47
2021/07/26 01:55:30;;;;;;;12.48;10.43;;;23.70;83.50;;;;;;5111160;28;20024;-46
2021/07/26 01:57:57;;;;;;;12.13;10.70;;;23.80;83.50;;;;;;5111186;28;20035;-47
2021/07/26 02:00:22;;;;;;;13.48;10.73;;;24.00;83.60;;;;;;5113211;28;20143;-45
2021/07/26 02:02:48;;;;;;;14.52;9.25;;;23.90;83.90;;;;;;5111487;28;20110;-46
2021/07/26 02:05:14;;;;;;;11.02;9.90;;;24.00;83.90;;;;;;5113203;28;20466;-44
2021/07/26 02:07:40;;;;;;;13.38;10.15;;;24.00;84.00;;;;;;5115702;28;20478;-47
2021/07/26 02:10:06;;;;;;;15.55;10.95;;;24.00;83.90;;;;;;5116965;28;20092;-45
2021/07/26 02:12:32;;;;;;;11.48;10.27;;;24.00;83.90;;;;;;5081231;28;20031;-49
2021/07/26 02:15:00;;;;;;;13.85;12.13;;;24.00;84.20;;;;;;5116827;28;20032;-52
2021/07/26 02:17:26;;;;;;;12.63;11.10;;;23.90;84.30;;;;;;5116791;28;20140;-45
2021/07/26 02:19:52;;;;;;;13.10;11.25;;;23.80;84.70;;;;;;5116772;28;20054;-47
2021/07/26 02:22:19;;;;;;;12.90;11.70;;;23.60;85.40;;;;;;5097897;28;20509;-48
2021/07/26 02:24:44;;;;;;;12.75;11.45;;;23.50;86.20;;;;;;5114939;28;20050;-47
2021/07/26 02:27:10;;;;;;;14.25;11.15;;;23.50;86.50;;;;;;5116571;28;20079;-47
2021/07/26 02:29:36;;;;;;;14.90;11.50;;;23.60;86.50;;;;;;5097892;28;20031;-46
2021/07/26 02:32:02;;;;;;;19.67;12.95;;;23.80;86.40;;;;;;5114663;28;20411;-46
2021/07/26 02:34:28;;;;;;;12.65;11.35;;;23.70;86.30;;;;;;5116527;27;20031;-46
2021/07/26 02:36:53;;;;;;;13.32;11.88;;;23.80;86.10;;;;;;5116547;28;20058;-45
2021/07/26 02:39:22;;;;;;;12.85;11.55;;;24.00;85.80;;;;;;5116285;27;20035;-47
2021/07/26 02:41:48;;;;;;;13.55;12.10;;;24.20;84.90;;;;;;5114523;28;20071;-46
2021/07/26 02:44:14;;;;;;;17.10;11.88;;;24.30;85.00;;;;;;5116494;28;20140;-48
2021/07/26 02:46:39;;;;;;;12.88;10.85;;;24.30;84.20;;;;;;5114655;28;20112;-47
2021/07/26 02:49:05;;;;;;;13.73;11.05;;;24.30;84.30;;;;;;5114598;28;20039;-46
2021/07/26 02:51:33;;;;;;;11.32;10.13;;;24.40;83.70;;;;;;5116240;28;20035;-45
2021/07/26 02:53:59;;;;;;;12.82;10.85;;;24.40;82.20;;;;;;5116284;28;20038;-45
2021/07/26 02:56:25;;;;;;;12.13;10.32;;;24.20;83.30;;;;;;5080345;28;20031;-47
2021/07/26 02:58:53;;;;;;;12.27;10.50;;;24.10;83.70;;;;;;5079872;28;20032;-48
2021/07/26 03:01:19;;;;;;;11.77;10.35;;;24.00;83.30;;;;;;5097012;28;20482;-46
2021/07/26 03:03:45;;;;;;;12.05;10.38;;;24.10;82.90;;;;;;5116058;28;20030;-45
2021/07/26 03:06:18;;;;;;;15.30;10.18;;;24.10;82.40;;;;;;5116042;28;20027;-48
2021/07/26 03:08:44;;;;;;;13.13;10.18;;;24.10;82.60;;;;;;5115993;28;20115;-45
2021/07/26 03:11:10;;;;;;;12.05;9.98;;;24.30;82.30;;;;;;5113899;28;20079;-45
2021/07/26 03:13:41;;;;;;;12.32;10.60;;;24.30;82.40;;;;;;5115843;27;20020;-48
2021/07/26 03:16:10;;;;;;;13.73;9.77;;;24.40;82.20;;;;;;5114454;28;20065;-45
2021/07/26 03:18:36;;;;;;;15.45;10.02;;;24.40;82.50;;;;;;5115920;28;20478;-47
2021/07/26 03:21:02;;;;;;;12.40;10.00;;;24.30;82.00;;;;;;5115363;28;20059;-48
2021/07/26 03:23:28;;;;;;;12.60;10.30;;;24.20;81.80;;;;;;5115630;28;20028;-48
2021/07/26 03:25:54;;;;;;;17.88;9.25;;;24.30;81.60;;;;;;5114044;28;20031;-45
2021/07/26 03:28:20;;;;;;;15.77;9.50;;;24.20;81.30;;;;;;5115912;28;20058;-46
2021/07/26 03:30:46;;;;;;;11.45;8.90;;;24.20;81.40;;;;;;5113544;28;20504;-46
2021/07/26 03:33:11;;;;;;;11.73;9.63;;;24.10;81.90;;;;;;5115468;28;20153;-46
2021/07/26 03:35:38;;;;;;;10.63;9.20;;;24.00;81.60;;;;;;5115304;27;20031;-47
2021/07/26 03:38:05;;;;;;;10.10;8.90;;;24.10;82.00;;;;;;5115403;28;20023;-45
2021/07/26 03:40:32;;;;;;;11.05;8.68;;;24.20;81.10;;;;;;5115056;27;20043;-48
2021/07/26 03:42:58;;;;;;;11.80;8.63;;;24.20;81.10;;;;;;5113483;28;20027;-47
2021/07/26 03:45:24;;;;;;;10.55;8.95;;;24.30;80.90;;;;;;5113273;28;20119;-48
2021/07/26 03:47:51;;;;;;;12.23;9.13;;;24.10;81.10;;;;;;5115269;28;20463;-46
2021/07/26 03:50:17;;;;;;;11.27;8.98;;;23.90;81.10;;;;;;5114983;28;20379;-45
2021/07/26 03:52:51;;;;;;;10.80;9.25;;;24.00;81.10;;;;;;5115213;28;20352;-48
2021/07/26 03:55:24;;;;;;;11.30;8.85;;;23.90;81.10;;;;;;5113096;28;20038;-47
2021/07/26 03:57:50;;;;;;;9.57;8.57;;;23.90;81.20;;;;;;5113352;28;20118;-45
2021/07/26 04:00:18;;;;;;;12.35;9.10;;;24.10;81.40;;;;;;5112997;28;20439;-47
2021/07/26 04:03:05;;;;;;;11.38;8.75;;;24.20;80.80;;;;;;5114971;28;20019;-46
2021/07/26 04:05:37;;;;;;;13.63;9.65;;;24.30;81.60;;;;;;5114783;28;20077;-48
2021/07/26 04:08:13;;;;;;;11.57;8.73;;;24.10;81.10;;;;;;5106661;27;20491;-47
2021/07/26 04:10:41;;;;;;;11.15;9.13;;;24.00;81.40;;;;;;5107981;28;20085;-45
2021/07/26 04:13:07;;;;;;;10.55;9.45;;;23.90;82.00;;;;;;5113190;28;20082;-45
2021/07/26 04:15:33;;;;;;;10.38;8.68;;;23.60;82.70;;;;;;5113033;28;20058;-47
2021/07/26 04:17:59;;;;;;;10.10;8.23;;;23.50;83.90;;;;;;5094985;28;20032;-47
2021/07/26 04:20:25;;;;;;;10.40;9.05;;;23.30;83.80;;;;;;5112936;28;20035;-45
2021/07/26 04:22:50;;;;;;;11.50;9.27;;;23.50;83.70;;;;;;5113375;28;20032;-47
2021/07/26 04:25:17;;;;;;;15.80;12.85;;;23.70;83.80;;;;;;5086155;28;20031;-47
2021/07/26 04:27:42;;;;;;;15.32;11.75;;;23.80;83.90;;;;;;5113670;28;20037;-45
2021/07/26 04:30:09;;;;;;;13.88;10.40;;;24.10;83.20;;;;;;5108966;28;20035;-48
2021/07/26 04:32:46;;;;;;;11.75;10.02;;;24.20;82.60;;;;;;5112310;28;20411;-47
2021/07/26 04:35:14;;;;;;;12.52;9.85;;;24.10;82.40;;;;;;5107817;28;20035;-47
2021/07/26 04:37:40;;;;;;;12.93;10.55;;;23.90;83.10;;;;;;5037873;28;20032;-47
2021/07/26 04:40:08;;;;;;;11.95;10.05;;;23.80;83.60;;;;;;5127098;27;20504;-46
2021/07/26 04:42:38;;;;;;;11.95;9.95;;;23.70;83.80;;;;;;5109770;28;20032;-46
2021/07/26 04:45:05;;;;;;;11.70;9.95;;;23.60;84.40;;;;;;5124989;27;20036;-45
2021/07/26 04:47:31;;;;;;;11.88;10.45;;;23.70;84.70;;;;;;5109028;28;20031;-47
2021/07/26 04:49:56;;;;;;;15.50;10.65;;;24.00;84.30;;;;;;5103856;28;20458;-46
2021/07/26 04:52:22;;;;;;;16.30;11.82;;;24.30;84.90;;;;;;5123856;27;20038;-45
2021/07/26 04:54:48;;;;;;;15.40;10.23;;;24.40;84.20;;;;;;5108809;28;20030;-48
2021/07/26 04:57:14;;;;;;;18.13;11.13;;;24.40;82.80;;;;;;5107481;28;20082;-47
2021/07/26 04:59:39;;;;;;;10.35;8.73;;;24.50;82.50;;;;;;5089181;28;20044;-46
2021/07/26 05:02:05;;;;;;;14.23;8.85;;;24.60;83.00;;;;;;5108083;28;20020;-46
2021/07/26 05:04:31;;;;;;;11.88;9.30;;;24.60;82.90;;;;;;5111111;28;20065;-46
2021/07/26 05:07:03;;;;;;;11.10;8.85;;;24.70;83.30;;;;;;5111972;28;20032;-48
2021/07/26 05:09:29;;;;;;;;;;;24.70;82.20;;;;;;5092650;28;20127;-47
2021/07/26 05:12:01;;;;;;;11.07;8.90;;;24.50;82.90;;;;;;5090043;28;19983;-45
2021/07/26 05:14:26;;;;;;;13.77;9.27;;;24.40;83.30;;;;;;5106959;28;20378;-47
2021/07/26 05:16:52;;;;;;;13.85;9.40;;;24.50;83.50;;;;;;5108359;28;20039;-45
2021/07/26 05:19:18;;;;;;;11.07;9.50;;;24.60;83.40;;;;;;5110402;28;20035;-45
2021/07/26 05:21:43;;;;;;;12.57;9.02;;;24.70;83.10;;;;;;5104787;28;20028;-48
2021/07/26 05:24:09;;;;;;;18.25;9.80;;;24.80;83.30;;;;;;5112280;28;20466;-49
2021/07/26 05:26:35;;;;;;;13.10;10.27;;;24.90;82.40;;;;;;5076286;28;20036;-46
2021/07/26 05:29:01;;;;;;;11.02;9.45;;;24.80;82.30;;;;;;5108207;28;20031;-49
2021/07/26 05:31:26;;;;;;;16.65;10.02;;;24.70;82.70;;;;;;5123074;28;20039;-45
2021/07/26 05:33:52;;;;;;;137.27;48.50;;;24.80;82.50;;;;;;5110555;28;20083;-52
2021/07/26 05:36:23;;;;;;;45.33;19.45;;;24.90;82.80;;;;;;5108486;28;20023;-50
2021/07/26 05:38:48;;;;;;;15.30;10.18;;;25.00;82.20;;;;;;5078950;28;20040;-47
2021/07/26 05:41:14;;;;;;;16.13;10.35;;;25.20;82.30;;;;;;5107931;28;20478;-48
2021/07/26 05:43:40;;;;;;;12.18;9.32;;;25.30;81.90;;;;;;5115772;28;20020;-51
2021/07/26 05:46:05;;;;;;;10.93;9.35;;;25.40;81.20;;;;;;5114026;28;20020;-49
2021/07/26 05:48:31;;;;;;;14.48;9.27;;;25.60;81.30;;;;;;5113977;28;20050;-51
2021/07/26 05:50:57;;;;;;;13.60;9.68;;;25.70;80.40;;;;;;5095767;28;20035;-51
2021/07/26 05:53:23;;;;;;;12.82;8.30;;;25.60;80.50;;;;;;5125484;27;20043;-50
2021/07/26 05:55:48;;;;;;;11.43;9.25;;;25.50;81.10;;;;;;5109840;28;20028;-52
2021/07/26 05:58:14;;;;;;;11.90;9.23;;;25.20;81.80;;;;;;5109155;28;20024;-52
2021/07/26 06:00:45;;;;;;;9.45;8.27;;;25.20;82.50;;;;;;5112912;28;20528;-51
2021/07/26 06:03:11;;;;;;;13.57;9.20;;;25.20;82.40;;;;;;5107272;28;20028;-50
2021/07/26 06:05:37;;;;;;;17.17;10.90;;;25.40;82.30;;;;;;5104914;28;20054;-49
2021/07/26 06:08:03;;;;;;;31.75;20.08;;;25.50;82.30;;;;;;5103819;28;20036;-50
2021/07/26 06:10:30;;;;;;;53.95;31.13;;;25.90;82.50;;;;;;5053314;28;20048;-48
2021/07/26 06:12:56;;;;;;;48.20;26.88;;;26.20;81.90;;;;;;5092149;28;20040;-49
2021/07/26 06:15:21;;;;;;;36.55;22.70;;;26.20;81.10;;;;;;5070268;28;20423;-48
2021/07/26 06:17:47;;;;;;;25.65;17.67;;;26.20;81.40;;;;;;5089453;28;20785;-49
2021/07/26 06:20:14;;;;;;;16.80;10.68;;;26.50;81.20;;;;;;5090911;28;20040;-46
2021/07/26 06:22:40;;;;;;;18.02;11.20;;;26.90;80.70;;;;;;5059001;28;20545;-47
2021/07/26 06:25:09;;;;;;;12.93;9.13;;;27.00;79.60;;;;;;5088733;28;20036;-47
2021/07/26 06:27:38;;;;;;;13.25;9.57;;;26.90;79.10;;;;;;5040562;28;20036;-46
2021/07/26 06:30:04;;;;;;;12.07;10.05;;;26.80;79.80;;;;;;5072652;28;20043;-47
2021/07/26 06:32:32;;;;;;;13.32;9.68;;;26.80;80.50;;;;;;4992099;28;20499;-46
2021/07/26 06:34:58;;;;;;;12.40;9.98;;;26.90;79.70;;;;;;5087956;28;20109;-48
2021/07/26 06:37:24;;;;;;;15.82;10.10;;;26.80;79.80;;;;;;5070133;28;20637;-46
2021/07/26 06:39:50;;;;;;;11.70;8.52;;;26.90;79.80;;;;;;5088381;28;20039;-45
2021/07/26 06:42:18;;;;;;;14.20;10.20;;;26.70;77.80;;;;;;5072890;28;20031;-44
2021/07/26 06:44:44;;;;;;;14.82;12.15;;;27.00;79.70;;;;;;5107282;28;20078;-45
2021/07/26 06:47:10;;;;;;;14.80;11.85;;;27.40;79.20;;;;;;5099395;28;20043;-46
2021/07/26 06:49:36;;;;;;;16.88;11.07;;;27.70;76.90;;;;;;5107715;28;20035;-47
2021/07/26 06:52:03;;;;;;;19.08;12.75;;;27.50;77.60;;;;;;5111909;28;20031;-46
2021/07/26 06:54:29;;;;;;;13.52;10.13;;;27.70;77.70;;;;;;5114746;28;20355;-44
2021/07/26 06:56:54;;;;;;;11.20;9.95;;;27.80;77.10;;;;;;5108536;28;20031;-43
2021/07/26 06:59:20;;;;;;;16.23;10.45;;;27.80;77.10;;;;;;5122905;27;20038;-44
2021/07/26 07:01:46;;;;;;;11.95;9.85;;;27.80;78.60;;;;;;5111168;28;20055;-44
2021/07/26 07:04:13;;;;;;;18.48;9.38;;;27.70;78.40;;;;;;5088539;28;20031;-46
2021/07/26 07:06:41;;;;;;;22.77;10.02;;;27.80;78.80;;;;;;5091476;28;20036;-46
2021/07/26 07:09:07;;;;;;;11.43;9.40;;;28.10;79.20;;;;;;5092008;28;20039;-46
2021/07/26 07:11:33;;;;;;;12.43;9.95;;;28.20;79.10;;;;;;5092195;28;20040;-45
2021/07/26 07:13:59;;;;;;;12.75;10.20;;;28.30;78.90;;;;;;5074932;28;20032;-46
2021/07/26 07:16:25;;;;;;;16.63;10.57;;;28.30;78.90;;;;;;5058429;28;20040;-44
2021/07/26 07:18:56;;;;;;;13.35;9.60;;;28.40;79.80;;;;;;5075041;28;20391;-45
2021/07/26 07:21:30;;;;;;;17.65;11.93;;;27.90;80.30;;;;;;5092722;28;20665;-46
2021/07/26 07:24:00;;;;;;;12.77;10.00;;;28.00;80.60;;;;;;5092789;28;20032;-45
2021/07/26 07:26:26;;;;;;;16.73;10.85;;;28.00;80.30;;;;;;5092634;28;20063;-41
2021/07/26 07:28:53;;;;;;;12.90;10.05;;;28.10;80.30;;;;;;5041902;28;20036;-43
2021/07/26 07:31:24;;;;;;;18.92;10.70;;;28.20;79.30;;;;;;5092664;28;20020;-41
2021/07/26 07:33:58;;;;;;;16.08;11.82;;;28.00;78.50;;;;;;5092618;28;20039;-42
2021/07/26 07:36:27;;;;;;;20.45;13.52;;;28.10;79.40;;;;;;5025393;28;20117;-38
2021/07/26 07:38:55;;;;;;;19.02;13.88;;;28.10;78.40;;;;;;5114937;28;20382;-41
2021/07/26 07:41:20;;;;;;;15.82;12.48;;;28.00;80.00;;;;;;5115256;28;20081;-43
2021/07/26 07:43:46;;;;;;;17.17;12.07;;;28.10;79.20;;;;;;5095492;28;20392;-41
2021/07/26 07:46:12;;;;;;;19.77;13.05;;;28.10;79.20;;;;;;5095614;28;20067;-44
2021/07/26 07:48:38;;;;;;;17.90;11.15;;;27.90;80.60;;;;;;5114198;28;20168;-42
2021/07/26 07:51:09;;;;;;;17.17;12.80;;;27.60;81.40;;;;;;5095015;28;20052;-42
2021/07/26 07:53:35;;;;;;;18.17;10.85;;;27.60;82.10;;;;;;5079380;28;20070;-43
2021/07/26 07:56:01;;;;;;;14.77;11.77;;;27.80;82.50;;;;;;5114421;28;20110;-41
2021/07/26 07:58:27;;;;;;;15.32;11.20;;;27.90;82.00;;;;;;5113706;28;20019;-41
2021/07/26 08:00:57;;;;;;;15.43;11.27;;;28.00;81.30;;;;;;5111975;28;20044;-44
2021/07/26 08:03:26;;;;;;;15.60;10.60;;;28.30;81.80;;;;;;5114841;28;20032;-40
2021/07/26 08:05:52;;;;;;;16.98;11.23;;;28.20;81.70;;;;;;5113968;28;20031;-41
2021/07/26 08:08:18;;;;;;;11.18;9.98;;;28.50;82.10;;;;;;5114644;28;20030;-42
2021/07/26 08:10:45;;;;;;;14.93;10.05;;;28.80;81.30;;;;;;5114468;28;20047;-44
2021/07/26 08:13:11;;;;;;;17.08;9.95;;;29.00;79.70;;;;;;5113619;28;20497;-41
2021/07/26 08:15:37;;;;;;;11.45;9.95;;;29.20;79.70;;;;;;5091675;28;20044;-45
2021/07/26 08:18:03;;;;;;;15.82;11.25;;;29.40;79.90;;;;;;5110885;27;20028;-42
2021/07/26 08:20:29;;;;;;;13.38;9.70;;;29.30;80.40;;;;;;5113224;28;20038;-44
2021/07/26 08:22:55;;;;;;;16.33;10.68;;;29.50;79.60;;;;;;5095462;28;20111;-42
2021/07/26 08:25:21;;;;;;;12.93;10.52;;;29.60;79.90;;;;;;5113800;28;20168;-43
2021/07/26 08:27:49;;;;;;;14.52;10.75;;;29.50;80.00;;;;;;5113845;28;20035;-41
2021/07/26 08:30:19;;;;;;;12.57;9.70;;;29.30;81.00;;;;;;5114313;28;20125;-41
2021/07/26 08:32:44;;;;;;;13.13;10.48;;;29.40;81.40;;;;;;5114379;28;20104;-41
2021/07/26 08:35:10;;;;;;;15.35;10.93;;;29.50;80.60;;;;;;5113935;28;20493;-40
2021/07/26 08:37:36;;;;;;;16.83;11.02;;;29.60;79.90;;;;;;5113836;28;20110;-43
2021/07/26 08:40:03;;;;;;;17.30;10.75;;;29.70;80.80;;;;;;5111210;28;20089;-42
2021/07/26 08:42:30;;;;;;;19.00;11.63;;;29.70;81.20;;;;;;5111745;28;20034;-42
2021/07/26 08:44:55;;;;;;;14.93;11.30;;;29.70;81.00;;;;;;5114000;28;20038;-43
2021/07/26 08:47:23;;;;;;;12.75;10.73;;;29.70;80.70;;;;;;5114297;28;20397;-49
2021/07/26 08:49:52;;;;;;;13.35;10.57;;;29.60;80.30;;;;;;5112053;27;20033;-48
2021/07/26 08:52:22;;;;;;;14.88;10.68;;;29.00;82.10;;;;;;5043260;28;20439;-47
2021/07/26 08:54:51;;;;;;;14.25;11.38;;;28.50;85.10;;;;;;5105013;28;20051;-44
2021/07/26 08:57:17;;;;;;;13.88;11.63;;;28.30;86.70;;;;;;5113844;28;20098;-43
2021/07/26 08:59:44;;;;;;;17.73;11.90;;;28.20;87.50;;;;;;5110774;28;20127;-47
2021/07/26 09:02:10;;;;;;;15.38;10.43;;;28.40;87.40;;;;;;5112705;28;20031;-48
2021/07/26 09:04:37;;;;;;;18.33;11.85;;;28.10;87.80;;;;;;5103085;28;20036;-45
2021/07/26 09:07:07;;;;;;;15.38;11.07;;;28.30;88.10;;;;;;5105746;28;20073;-45
2021/07/26 09:09:49;;;;;;;16.02;12.20;;;28.10;88.50;;;;;;5099870;28;20402;-46
2021/07/26 09:12:33;;;;;;;16.85;11.60;;;28.00;89.40;;;;;;5093342;28;20035;-45
2021/07/26 09:15:00;;;;;;;15.55;12.10;;;28.00;88.60;;;;;;5121488;28;20040;-43
2021/07/26 09:17:39;;;;;;;14.70;11.02;;;28.10;88.70;;;;;;5117738;28;20442;-48
2021/07/26 09:20:05;;;;;;;13.98;11.10;;;28.20;88.50;;;;;;5047971;28;20039;-43
2021/07/26 09:22:36;;;;;;;16.15;12.38;;;28.20;88.80;;;;;;5117021;28;20509;-49
2021/07/26 09:25:27;;;;;;;16.20;11.48;;;28.40;89.60;;;;;;5097602;28;20122;-48
2021/07/26 09:27:58;;;;;;;14.63;12.25;;;28.60;88.30;;;;;;5096947;28;20031;-47
2021/07/26 09:30:24;;;;;;;19.95;11.18;;;28.90;87.70;;;;;;5117006;28;20481;-46
2021/07/26 09:32:50;;;;;;;12.77;10.65;;;29.10;87.20;;;;;;5118015;28;20031;-45
2021/07/26 09:35:16;;;;;;;12.60;10.73;;;29.30;86.00;;;;;;5117710;28;20061;-48
2021/07/26 09:37:42;;;;;;;16.77;11.23;;;29.60;87.30;;;;;;5098925;28;20040;-47
2021/07/26 09:40:22;;;;;;;18.02;11.10;;;29.90;83.00;;;;;;5098574;28;20366;-46
2021/07/26 09:42:49;;;;;;;17.15;12.23;;;30.10;83.30;;;;;;5115507;28;20032;-43
2021/07/26 09:45:21;;;;;;;17.90;12.15;;;30.30;83.00;;;;;;5117604;28;20065;-47
2021/07/26 09:48:07;;;;;;;15.48;11.60;;;30.60;82.00;;;;;;5115671;28;20143;-47
2021/07/26 09:50:34;;;;;;;18.27;11.60;;;30.80;82.10;;;;;;5117644;28;20031;-44
2021/07/26 09:53:30;;;;;;;13.20;10.18;;;31.00;81.90;;;;;;5117644;28;20019;-47
2021/07/26 09:56:13;;;;;;;20.10;13.18;;;31.00;81.00;;;;;;5060496;28;20070;-46
2021/07/26 09:58:41;;;;;;;14.13;9.90;;;31.10;81.80;;;;;;5082076;28;20031;-46
2021/07/26 10:01:09;;;;;;;18.98;9.73;;;31.10;79.70;;;;;;5083375;28;20093;-45
2021/07/26 10:03:41;;;;;;;13.77;9.10;;;31.20;80.60;;;;;;5079334;28;20051;-47
2021/07/26 10:06:09;;;;;;;;;;;31.20;80.70;;;;;;5080891;28;20063;-47
2021/07/26 10:08:37;;;;;;;16.02;10.80;;;31.10;79.70;;;;;;5059735;28;19908;-48
2021/07/26 10:11:03;;;;;;;16.23;10.30;;;31.00;82.30;;;;;;5028130;28;20052;-45
2021/07/26 10:13:29;;;;;;;19.38;10.18;;;31.00;82.30;;;;;;5054059;28;20063;-47
2021/07/26 10:15:56;;;;;;;13.68;10.48;;;31.10;82.00;;;;;;5054161;28;20040;-45
2021/07/26 10:18:22;;;;;;;62.42;24.77;;;31.10;82.70;;;;;;5073449;28;20048;-44
2021/07/26 10:20:57;;;;;;;16.17;10.73;;;31.00;82.20;;;;;;5073841;28;20392;-45
2021/07/26 10:23:52;;;;;;;19.63;11.45;;;30.90;83.40;;;;;;5033269;28;20044;-47
2021/07/26 10:26:21;;;;;;;27.55;13.85;;;30.70;84.10;;;;;;5031496;28;20049;-45
2021/07/26 10:28:55;;;;;;;23.42;14.75;;;30.70;84.70;;;;;;5032768;28;20040;-47
2021/07/26 10:31:32;;;;;;;25.38;15.38;;;30.50;86.20;;;;;;5033406;28;20183;-43
2021/07/26 10:34:03;;;;;;;26.15;14.75;;;30.50;86.50;;;;;;5045529;28;20036;-44
2021/07/26 10:36:41;;;;;;;18.35;13.30;;;30.50;86.50;;;;;;5050607;28;20049;-46
2021/07/26 10:39:13;;;;;;;16.98;12.40;;;30.80;87.00;;;;;;5073832;28;20065;-46
2021/07/26 10:41:45;;;;;;;19.48;11.25;;;31.20;85.30;;;;;;5059144;28;20077;-47
2021/07/26 10:44:17;;;;;;;23.77;11.65;;;31.60;83.40;;;;;;5090756;28;20491;-45
2021/07/26 10:47:04;;;;;;;17.77;11.82;;;31.90;84.50;;;;;;5093345;28;20024;-48
2021/07/26 10:49:35;;;;;;;19.83;11.80;;;31.80;82.20;;;;;;5093363;28;20043;-46
2021/07/26 10:52:01;;;;;;;25.55;12.27;;;31.70;82.10;;;;;;5093742;28;20024;-45
2021/07/26 10:54:34;;;;;;;20.25;11.48;;;31.80;82.30;;;;;;5080439;28;20123;-48
2021/07/26 10:57:00;;;;;;;18.05;11.95;;;31.80;81.20;;;;;;5117042;28;20035;-43
2021/07/26 10:59:26;;;;;;;23.17;13.30;;;31.50;81.50;;;;;;5116153;28;20494;-44
2021/07/26 11:02:01;;;;;;;20.30;13.68;;;31.30;82.60;;;;;;5116080;28;20029;-45
2021/07/26 11:04:38;;;;;;;18.38;13.20;;;31.20;82.60;;;;;;5116080;27;20465;-45
2021/07/26 11:07:09;;;;;;;20.13;13.52;;;31.20;81.70;;;;;;5096891;28;20366;-47
2021/07/26 11:09:38;;;;;;;22.55;13.40;;;31.30;81.60;;;;;;5096525;28;20048;-47
2021/07/26 11:12:05;;;;;;;17.73;12.88;;;31.20;81.30;;;;;;5116721;28;20027;-44
2021/07/26 11:14:31;;;;;;;15.95;11.90;;;31.20;82.00;;;;;;5115955;28;20478;-44
2021/07/26 11:17:06;;;;;;;19.13;13.00;;;31.30;80.10;;;;;;5115490;28;20068;-48
2021/07/26 11:19:41;;;;;;;16.00;12.65;;;31.40;80.50;;;;;;5115678;28;20054;-47
2021/07/26 11:22:20;;;;;;;20.83;13.35;;;31.50;81.90;;;;;;5113941;28;20032;-44
2021/07/26 11:24:47;;;;;;;20.30;12.55;;;31.70;80.50;;;;;;5115496;28;20374;-46
2021/07/26 11:27:37;;;;;;;15.32;11.85;;;31.60;79.50;;;;;;5115560;28;20039;-45
2021/07/26 11:30:08;;;;;;;15.73;12.10;;;31.80;79.00;;;;;;5115565;28;20063;-46
2021/07/26 11:32:34;;;;;;;15.77;10.65;;;31.80;77.80;;;;;;5080223;28;20047;-45
2021/07/26 11:35:00;;;;;;;19.05;11.57;;;31.70;77.10;;;;;;5096986;28;20053;-44
2021/07/26 11:37:30;;;;;;;23.25;11.82;;;31.50;77.30;;;;;;5116149;28;20028;-44
2021/07/26 11:40:00;;;;;;;23.88;12.75;;;31.40;78.30;;;;;;5114088;28;20049;-47
2021/07/26 11:42:29;;;;;;;21.92;11.82;;;31.30;78.90;;;;;;5115223;28;20039;-45
2021/07/26 11:44:55;;;;;;;17.75;11.95;;;31.60;79.70;;;;;;5115401;28;20035;-45
2021/07/26 11:47:41;;;;;;;17.23;11.75;;;32.00;79.20;;;;;;5095899;28;20035;-45
2021/07/26 11:50:12;;;;;;;20.38;11.70;;;31.90;78.90;;;;;;5113151;28;20043;-47
2021/07/26 11:52:50;;;;;;;14.63;9.60;;;32.00;75.70;;;;;;5096118;28;20031;-48
2021/07/26 11:55:16;;;;;;;17.15;10.88;;;32.30;77.70;;;;;;5114700;28;20035;-45
2021/07/26 11:57:55;;;;;;;21.10;10.48;;;32.60;74.90;;;;;;5095944;28;20039;-45
2021/07/26 12:00:31;;;;;;;12.93;9.82;;;33.10;74.90;;;;;;5114879;28;20044;-47
2021/07/26 12:02:58;;;;;;;15.23;9.90;;;33.90;76.60;;;;;;5095161;28;20075;-46
2021/07/26 12:05:31;;;;;;;15.57;8.48;;;;;;;;;;5114832;28;20038;-45
2021/07/26 12:07:59;;;;;;;18.65;9.48;;;;;;;;;;5114293;28;20051;-45
2021/07/26 12:10:32;;;;;;;13.45;7.43;;;;;;;;;;5113706;28;20051;-44
2021/07/26 12:13:19;;;;;;;16.20;7.65;;;;;;;;;;5114582;28;20028;-45
2021/07/26 12:15:46;;;;;;;17.50;8.52;;;;;;;;;;5113983;28;20463;-46
2021/07/26 12:18:14;;;;;;;11.85;7.30;;;;;;;;;;5114147;28;20034;-45
2021/07/26 12:20:41;;;;;;;17.58;8.02;;;;;;;;;;5091658;28;20067;-45
2021/07/26 12:23:11;;;;;;;23.25;7.93;;;;;;;;;;5091904;28;20032;-47
2021/07/26 12:25:56;;;;;;;16.00;7.38;;;;;;;;;;5091259;28;20043;-46
2021/07/26 12:28:23;;;;;;;22.10;8.00;;;;;;;;;;5091100;28;20455;-47
2021/07/26 12:30:51;;;;;;;22.05;7.55;;;;;;;;;;5089836;28;20040;-44
2021/07/26 12:33:47;;;;;;;19.70;7.32;;;;;;;;;;5090283;28;20443;-45
2021/07/26 12:36:13;;;;;;;21.02;7.82;;;36.40;91.10;;;;;;5008700;28;20038;-46
2021/07/26 12:38:41;;;;;;;20.17;8.32;;;36.40;89.10;;;;;;5008905;28;20030;-45
2021/07/26 12:41:09;;;;;;;17.83;7.38;;;36.00;72.20;;;;;;5007580;28;20041;-47
2021/07/26 12:43:37;;;;;;;19.70;8.05;;;35.80;69.20;;;;;;5002035;28;20037;-47